Ann Arbor, MI

5:20 AM EDT on September 02, 2015 (GMT -0400)
Virginia Park | | Change Station
CLOSE
Current Station
Personal Weather Station
Location: Ann Arbor, MI
Elevation: 896 ft
Nearby Weather Stations

Elev 896 ft 42.28 °N, 83.77 °W | Updated 30 seconds ago

Fog
Fog
67.5 °F
Feels Like 67.5 °F
N
0.0
Wind Variable Wind from North
Gusts 0.0 mph

Today
High -- | Low -- °F
--% Chance of Precip.
Yesterday
High -- | Low -- °F
Precip. -- in
7:01 AM 8:07 PM
Waning Gibbous, 82% visible
Pressure 30.04 in
Visibility 0.2 miles
Clouds
Dew Point 67 °F
Humidity 99%
Rainfall 0.00 in
Snow Depth Not available.
UV Not available.
Pollen 7.00 out of 12
Air Quality Not available.
Flu Activity Not available.
METAR KARB 020853Z AUTO 24003KT 1/4SM FG VV003 18/18 A3005 RMK AO2 SLP171 T01780178 55002
Pressure 30.04 in
Visibility 0.2 miles
Clouds
Dew Point 67 °F
Humidity 99%
Rainfall 0.00 in
Snow Depth Not available.
UV Not available.
Pollen 7.00 out of 12
Air Quality Not available.
Flu Activity Not available.
METAR KARB 020853Z AUTO 24003KT 1/4SM FG VV003 18/18 A3005 RMK AO2 SLP171 T01780178 55002

10-Day Weather Forecast

×

Almanac

Astronomy

Sep. 02, 2015 Rise Set
Actual Time
Civil Twilight
Nautical Twilight
Astronomical Twilight
Moon
Length of Visible Light
Length of Day
Tomorrow will be .
, % of the Moon is Illuminated

Today's Extremes

State Highs State Lows

Community

WunderPhotos

Upload Photos

1,851,730 photos uploaded!

WunderBlogs® & News

Nearby

Air Quality

  Air Quality AQ Index Pollutant
Not available.

Snow Depth

Station Depth Elevation

Earthquake Activity

City Distance Mag. Time & Date
Minimum magnitude displayed is 2.5.

Coastal Water Temperatures

Place Temperature

Stations

Nearby Weather Stations

Station Location Temp. Windchill Dew Point Humidity Wind Precip. Elev Updated Type